sensor_id;sensor_type;location;lat;lon;timestamp;P1;durP1;ratioP1;P2;durP2;ratioP2
66619;SDS011;53484;51.356;6.732;2022-07-29T00:01:58;6.25;;;1.27;;
66619;SDS011;53484;51.356;6.732;2022-07-29T00:04:25;7.45;;;1.77;;
66619;SDS011;53484;51.356;6.732;2022-07-29T00:06:51;4.93;;;1.10;;
66619;SDS011;53484;51.356;6.732;2022-07-29T00:09:17;5.85;;;1.17;;
66619;SDS011;53484;51.356;6.732;2022-07-29T00:11:43;4.60;;;1.10;;
66619;SDS011;53484;51.356;6.732;2022-07-29T00:14:10;7.38;;;1.42;;
66619;SDS011;53484;51.356;6.732;2022-07-29T00:16:36;4.07;;;1.10;;
66619;SDS011;53484;51.356;6.732;2022-07-29T00:19:04;6.00;;;1.52;;
66619;SDS011;53484;51.356;6.732;2022-07-29T00:21:30;7.47;;;1.20;;
66619;SDS011;53484;51.356;6.732;2022-07-29T00:23:56;8.47;;;1.27;;
66619;SDS011;53484;51.356;6.732;2022-07-29T00:26:22;6.63;;;1.48;;
66619;SDS011;53484;51.356;6.732;2022-07-29T00:28:49;11.85;;;1.30;;
66619;SDS011;53484;51.356;6.732;2022-07-29T00:31:15;6.20;;;1.23;;
66619;SDS011;53484;51.356;6.732;2022-07-29T00:33:41;4.57;;;1.40;;
66619;SDS011;53484;51.356;6.732;2022-07-29T00:36:09;7.50;;;1.20;;
66619;SDS011;53484;51.356;6.732;2022-07-29T00:38:34;14.38;;;1.60;;
66619;SDS011;53484;51.356;6.732;2022-07-29T00:41:00;6.60;;;1.20;;
66619;SDS011;53484;51.356;6.732;2022-07-29T00:43:27;4.18;;;1.10;;
66619;SDS011;53484;51.356;6.732;2022-07-29T00:45:53;8.63;;;1.25;;
66619;SDS011;53484;51.356;6.732;2022-07-29T00:48:19;6.77;;;1.20;;
66619;SDS011;53484;51.356;6.732;2022-07-29T00:50:46;7.75;;;1.40;;
66619;SDS011;53484;51.356;6.732;2022-07-29T00:53:13;9.73;;;1.45;;
66619;SDS011;53484;51.356;6.732;2022-07-29T00:55:39;6.43;;;1.17;;
66619;SDS011;53484;51.356;6.732;2022-07-29T00:58:06;6.63;;;1.27;;
66619;SDS011;53484;51.356;6.732;2022-07-29T01:03:34;5.38;;;1.17;;
66619;SDS011;53484;51.356;6.732;2022-07-29T01:06:01;5.25;;;1.33;;
66619;SDS011;53484;51.356;6.732;2022-07-29T01:08:28;7.00;;;1.60;;
66619;SDS011;53484;51.356;6.732;2022-07-29T01:10:55;8.35;;;1.50;;
66619;SDS011;53484;51.356;6.732;2022-07-29T01:13:21;6.53;;;1.57;;
66619;SDS011;53484;51.356;6.732;2022-07-29T01:15:49;5.15;;;1.85;;
66619;SDS011;53484;51.356;6.732;2022-07-29T01:18:18;8.35;;;2.45;;
66619;SDS011;53484;51.356;6.732;2022-07-29T01:20:55;7.38;;;1.85;;
66619;SDS011;53484;51.356;6.732;2022-07-29T01:23:31;6.90;;;2.22;;
66619;SDS011;53484;51.356;6.732;2022-07-29T01:26:09;6.27;;;2.10;;
66619;SDS011;53484;51.356;6.732;2022-07-29T01:28:52;9.25;;;2.08;;
66619;SDS011;53484;51.356;6.732;2022-07-29T01:31:24;10.10;;;1.92;;
66619;SDS011;53484;51.356;6.732;2022-07-29T01:33:55;6.57;;;1.60;;
66619;SDS011;53484;51.356;6.732;2022-07-29T01:36:23;9.57;;;1.77;;
66619;SDS011;53484;51.356;6.732;2022-07-29T01:38:52;9.37;;;1.87;;
66619;SDS011;53484;51.356;6.732;2022-07-29T01:41:20;6.47;;;1.38;;
66619;SDS011;53484;51.356;6.732;2022-07-29T01:43:48;5.15;;;1.50;;
66619;SDS011;53484;51.356;6.732;2022-07-29T01:46:17;9.05;;;1.48;;
66619;SDS011;53484;51.356;6.732;2022-07-29T01:48:47;4.72;;;1.40;;
66619;SDS011;53484;51.356;6.732;2022-07-29T01:51:14;8.40;;;1.60;;
66619;SDS011;53484;51.356;6.732;2022-07-29T01:53:43;6.70;;;1.70;;
66619;SDS011;53484;51.356;6.732;2022-07-29T01:56:12;5.18;;;1.63;;
66619;SDS011;53484;51.356;6.732;2022-07-29T01:58:40;9.57;;;1.40;;
66619;SDS011;53484;51.356;6.732;2022-07-29T02:01:08;5.32;;;1.40;;
66619;SDS011;53484;51.356;6.732;2022-07-29T02:03:36;7.03;;;1.47;;
66619;SDS011;53484;51.356;6.732;2022-07-29T02:06:02;4.25;;;1.30;;
66619;SDS011;53484;51.356;6.732;2022-07-29T02:08:30;12.30;;;1.50;;
66619;SDS011;53484;51.356;6.732;2022-07-29T02:10:58;3.67;;;1.20;;
66619;SDS011;53484;51.356;6.732;2022-07-29T02:13:25;6.43;;;1.45;;
66619;SDS011;53484;51.356;6.732;2022-07-29T02:15:53;6.47;;;1.13;;
66619;SDS011;53484;51.356;6.732;2022-07-29T02:18:20;6.35;;;1.42;;
66619;SDS011;53484;51.356;6.732;2022-07-29T02:20:50;5.30;;;1.80;;
66619;SDS011;53484;51.356;6.732;2022-07-29T02:23:19;5.90;;;1.50;;
66619;SDS011;53484;51.356;6.732;2022-07-29T02:25:46;8.77;;;1.75;;
66619;SDS011;53484;51.356;6.732;2022-07-29T02:28:14;9.63;;;1.40;;
66619;SDS011;53484;51.356;6.732;2022-07-29T02:30:41;4.97;;;1.42;;
66619;SDS011;53484;51.356;6.732;2022-07-29T02:33:09;5.70;;;1.23;;
66619;SDS011;53484;51.356;6.732;2022-07-29T02:35:35;14.95;;;3.38;;
66619;SDS011;53484;51.356;6.732;2022-07-29T02:38:04;9.98;;;2.55;;
66619;SDS011;53484;51.356;6.732;2022-07-29T02:40:48;9.23;;;2.20;;
66619;SDS011;53484;51.356;6.732;2022-07-29T02:43:16;8.13;;;2.03;;
66619;SDS011;53484;51.356;6.732;2022-07-29T02:45:43;10.75;;;2.40;;
66619;SDS011;53484;51.356;6.732;2022-07-29T02:48:10;8.32;;;1.90;;
66619;SDS011;53484;51.356;6.732;2022-07-29T02:50:40;9.52;;;2.08;;
66619;SDS011;53484;51.356;6.732;2022-07-29T02:53:13;7.83;;;1.50;;
66619;SDS011;53484;51.356;6.732;2022-07-29T02:55:43;10.25;;;1.80;;
66619;SDS011;53484;51.356;6.732;2022-07-29T02:58:17;8.82;;;1.67;;
66619;SDS011;53484;51.356;6.732;2022-07-29T03:00:47;6.20;;;1.75;;
66619;SDS011;53484;51.356;6.732;2022-07-29T03:03:15;6.35;;;1.67;;
66619;SDS011;53484;51.356;6.732;2022-07-29T03:05:42;10.10;;;1.60;;
66619;SDS011;53484;51.356;6.732;2022-07-29T03:08:09;6.15;;;1.10;;
66619;SDS011;53484;51.356;6.732;2022-07-29T03:10:38;6.10;;;1.23;;
66619;SDS011;53484;51.356;6.732;2022-07-29T03:13:05;4.40;;;1.30;;
66619;SDS011;53484;51.356;6.732;2022-07-29T03:15:32;7.30;;;1.45;;
66619;SDS011;53484;51.356;6.732;2022-07-29T03:17:59;7.57;;;1.30;;
66619;SDS011;53484;51.356;6.732;2022-07-29T03:20:25;4.90;;;1.17;;
66619;SDS011;53484;51.356;6.732;2022-07-29T03:22:52;5.85;;;1.50;;
66619;SDS011;53484;51.356;6.732;2022-07-29T03:25:18;4.15;;;1.20;;
66619;SDS011;53484;51.356;6.732;2022-07-29T03:27:47;8.85;;;1.52;;
66619;SDS011;53484;51.356;6.732;2022-07-29T03:30:14;5.43;;;1.20;;
66619;SDS011;53484;51.356;6.732;2022-07-29T03:32:41;4.75;;;1.20;;
66619;SDS011;53484;51.356;6.732;2022-07-29T03:35:08;8.77;;;1.30;;
66619;SDS011;53484;51.356;6.732;2022-07-29T03:37:34;5.30;;;1.30;;
66619;SDS011;53484;51.356;6.732;2022-07-29T03:40:02;5.88;;;1.25;;
66619;SDS011;53484;51.356;6.732;2022-07-29T03:42:30;7.57;;;1.40;;
66619;SDS011;53484;51.356;6.732;2022-07-29T03:44:58;9.18;;;1.80;;
66619;SDS011;53484;51.356;6.732;2022-07-29T03:47:27;8.25;;;2.03;;
66619;SDS011;53484;51.356;6.732;2022-07-29T03:49:56;5.88;;;1.90;;
66619;SDS011;53484;51.356;6.732;2022-07-29T03:52:23;6.05;;;1.38;;
66619;SDS011;53484;51.356;6.732;2022-07-29T03:54:49;7.57;;;1.40;;
66619;SDS011;53484;51.356;6.732;2022-07-29T03:57:15;13.00;;;2.45;;
66619;SDS011;53484;51.356;6.732;2022-07-29T03:59:42;10.68;;;2.10;;
66619;SDS011;53484;51.356;6.732;2022-07-29T04:02:10;10.13;;;2.63;;
66619;SDS011;53484;51.356;6.732;2022-07-29T04:04:37;8.35;;;1.92;;
66619;SDS011;53484;51.356;6.732;2022-07-29T04:07:03;7.83;;;2.10;;
66619;SDS011;53484;51.356;6.732;2022-07-29T04:09:30;14.20;;;2.13;;
66619;SDS011;53484;51.356;6.732;2022-07-29T04:11:56;8.57;;;2.35;;
66619;SDS011;53484;51.356;6.732;2022-07-29T04:14:22;8.77;;;2.70;;
66619;SDS011;53484;51.356;6.732;2022-07-29T04:16:49;9.05;;;2.22;;
66619;SDS011;53484;51.356;6.732;2022-07-29T04:19:16;7.33;;;2.23;;
66619;SDS011;53484;51.356;6.732;2022-07-29T04:21:43;7.97;;;2.13;;
66619;SDS011;53484;51.356;6.732;2022-07-29T04:24:10;6.40;;;2.20;;
66619;SDS011;53484;51.356;6.732;2022-07-29T04:26:36;5.70;;;2.25;;
66619;SDS011;53484;51.356;6.732;2022-07-29T04:29:02;6.53;;;2.20;;
66619;SDS011;53484;51.356;6.732;2022-07-29T04:31:28;17.87;;;2.27;;
66619;SDS011;53484;51.356;6.732;2022-07-29T04:33:55;7.22;;;1.85;;
66619;SDS011;53484;51.356;6.732;2022-07-29T04:36:22;4.80;;;1.90;;
66619;SDS011;53484;51.356;6.732;2022-07-29T04:38:49;6.93;;;2.47;;
66619;SDS011;53484;51.356;6.732;2022-07-29T04:41:15;5.65;;;2.63;;
66619;SDS011;53484;51.356;6.732;2022-07-29T04:43:41;6.53;;;2.17;;
66619;SDS011;53484;51.356;6.732;2022-07-29T04:46:07;10.13;;;2.47;;
66619;SDS011;53484;51.356;6.732;2022-07-29T04:48:34;7.35;;;2.40;;
66619;SDS011;53484;51.356;6.732;2022-07-29T04:51:00;7.05;;;2.70;;
66619;SDS011;53484;51.356;6.732;2022-07-29T04:53:28;11.02;;;2.35;;
66619;SDS011;53484;51.356;6.732;2022-07-29T04:55:54;9.17;;;2.90;;
66619;SDS011;53484;51.356;6.732;2022-07-29T04:58:20;6.75;;;2.40;;
66619;SDS011;53484;51.356;6.732;2022-07-29T05:00:48;9.13;;;2.90;;
66619;SDS011;53484;51.356;6.732;2022-07-29T05:03:14;9.25;;;2.50;;
66619;SDS011;53484;51.356;6.732;2022-07-29T05:05:41;10.95;;;3.10;;
66619;SDS011;53484;51.356;6.732;2022-07-29T05:08:07;10.57;;;2.80;;
66619;SDS011;53484;51.356;6.732;2022-07-29T05:10:35;11.75;;;2.97;;
66619;SDS011;53484;51.356;6.732;2022-07-29T05:13:03;9.13;;;3.08;;
66619;SDS011;53484;51.356;6.732;2022-07-29T05:15:29;10.77;;;3.20;;
66619;SDS011;53484;51.356;6.732;2022-07-29T05:17:55;8.48;;;2.92;;
66619;SDS011;53484;51.356;6.732;2022-07-29T05:20:22;8.27;;;2.70;;
66619;SDS011;53484;51.356;6.732;2022-07-29T05:22:51;8.07;;;2.53;;
66619;SDS011;53484;51.356;6.732;2022-07-29T05:25:17;9.18;;;2.80;;
66619;SDS011;53484;51.356;6.732;2022-07-29T05:27:45;6.22;;;2.78;;
66619;SDS011;53484;51.356;6.732;2022-07-29T05:30:11;7.43;;;2.65;;
66619;SDS011;53484;51.356;6.732;2022-07-29T05:32:38;7.57;;;2.90;;
66619;SDS011;53484;51.356;6.732;2022-07-29T05:35:04;7.47;;;2.90;;
66619;SDS011;53484;51.356;6.732;2022-07-29T05:37:31;10.75;;;2.97;;
66619;SDS011;53484;51.356;6.732;2022-07-29T05:39:57;10.15;;;3.05;;
66619;SDS011;53484;51.356;6.732;2022-07-29T05:42:23;6.85;;;2.72;;
66619;SDS011;53484;51.356;6.732;2022-07-29T05:47:19;8.02;;;2.80;;
66619;SDS011;53484;51.356;6.732;2022-07-29T05:49:45;7.75;;;2.60;;
66619;SDS011;53484;51.356;6.732;2022-07-29T05:52:12;7.50;;;2.42;;
66619;SDS011;53484;51.356;6.732;2022-07-29T05:54:39;9.13;;;3.20;;
66619;SDS011;53484;51.356;6.732;2022-07-29T05:57:05;7.70;;;2.50;;
66619;SDS011;53484;51.356;6.732;2022-07-29T05:59:34;8.20;;;2.55;;
66619;SDS011;53484;51.356;6.732;2022-07-29T06:02:01;7.57;;;2.50;;
66619;SDS011;53484;51.356;6.732;2022-07-29T06:04:28;8.93;;;2.47;;
66619;SDS011;53484;51.356;6.732;2022-07-29T06:06:54;6.28;;;2.55;;
66619;SDS011;53484;51.356;6.732;2022-07-29T06:09:21;5.20;;;2.17;;
66619;SDS011;53484;51.356;6.732;2022-07-29T06:11:47;9.10;;;2.00;;
66619;SDS011;53484;51.356;6.732;2022-07-29T06:14:14;13.05;;;2.22;;
66619;SDS011;53484;51.356;6.732;2022-07-29T06:16:40;5.65;;;2.22;;
66619;SDS011;53484;51.356;6.732;2022-07-29T06:19:06;6.28;;;2.40;;
66619;SDS011;53484;51.356;6.732;2022-07-29T06:21:34;7.47;;;2.63;;
66619;SDS011;53484;51.356;6.732;2022-07-29T06:24:00;8.93;;;2.60;;
66619;SDS011;53484;51.356;6.732;2022-07-29T06:26:27;6.80;;;2.70;;
66619;SDS011;53484;51.356;6.732;2022-07-29T06:28:53;6.55;;;2.55;;
66619;SDS011;53484;51.356;6.732;2022-07-29T06:31:19;7.97;;;2.45;;
66619;SDS011;53484;51.356;6.732;2022-07-29T06:33:45;6.00;;;2.33;;
66619;SDS011;53484;51.356;6.732;2022-07-29T06:36:12;7.40;;;2.50;;
66619;SDS011;53484;51.356;6.732;2022-07-29T06:38:39;6.47;;;2.70;;
66619;SDS011;53484;51.356;6.732;2022-07-29T06:41:06;9.05;;;2.90;;
66619;SDS011;53484;51.356;6.732;2022-07-29T06:43:37;7.55;;;2.50;;
66619;SDS011;53484;51.356;6.732;2022-07-29T06:46:04;7.30;;;2.17;;
66619;SDS011;53484;51.356;6.732;2022-07-29T06:48:31;9.48;;;2.40;;
66619;SDS011;53484;51.356;6.732;2022-07-29T06:50:58;8.23;;;2.28;;
66619;SDS011;53484;51.356;6.732;2022-07-29T06:53:24;6.95;;;2.60;;
66619;SDS011;53484;51.356;6.732;2022-07-29T06:55:52;6.88;;;2.20;;
66619;SDS011;53484;51.356;6.732;2022-07-29T06:58:18;8.43;;;2.77;;
66619;SDS011;53484;51.356;6.732;2022-07-29T07:00:45;8.68;;;2.63;;
66619;SDS011;53484;51.356;6.732;2022-07-29T07:03:11;9.95;;;2.70;;
66619;SDS011;53484;51.356;6.732;2022-07-29T07:05:38;10.00;;;2.45;;
66619;SDS011;53484;51.356;6.732;2022-07-29T07:08:04;6.47;;;2.70;;
66619;SDS011;53484;51.356;6.732;2022-07-29T07:10:30;9.20;;;2.27;;
66619;SDS011;53484;51.356;6.732;2022-07-29T07:12:58;8.10;;;2.47;;
66619;SDS011;53484;51.356;6.732;2022-07-29T07:15:25;7.47;;;2.70;;
66619;SDS011;53484;51.356;6.732;2022-07-29T07:17:51;7.57;;;2.80;;
66619;SDS011;53484;51.356;6.732;2022-07-29T07:20:17;5.88;;;2.83;;
66619;SDS011;53484;51.356;6.732;2022-07-29T07:22:44;7.90;;;2.70;;
66619;SDS011;53484;51.356;6.732;2022-07-29T07:25:10;8.50;;;2.72;;
66619;SDS011;53484;51.356;6.732;2022-07-29T07:27:36;7.47;;;2.80;;
66619;SDS011;53484;51.356;6.732;2022-07-29T07:30:05;7.30;;;2.67;;
66619;SDS011;53484;51.356;6.732;2022-07-29T07:32:31;11.95;;;2.92;;
66619;SDS011;53484;51.356;6.732;2022-07-29T07:34:58;8.07;;;2.80;;
66619;SDS011;53484;51.356;6.732;2022-07-29T07:37:24;8.27;;;3.38;;
66619;SDS011;53484;51.356;6.732;2022-07-29T07:39:50;10.18;;;3.15;;
66619;SDS011;53484;51.356;6.732;2022-07-29T07:42:17;11.50;;;3.70;;
66619;SDS011;53484;51.356;6.732;2022-07-29T07:44:43;9.65;;;3.38;;
66619;SDS011;53484;51.356;6.732;2022-07-29T07:47:11;8.13;;;3.30;;
66619;SDS011;53484;51.356;6.732;2022-07-29T07:49:38;8.18;;;3.22;;
66619;SDS011;53484;51.356;6.732;2022-07-29T07:52:05;11.35;;;3.60;;
66619;SDS011;53484;51.356;6.732;2022-07-29T07:54:31;10.48;;;3.35;;
66619;SDS011;53484;51.356;6.732;2022-07-29T07:56:57;10.23;;;3.72;;
66619;SDS011;53484;51.356;6.732;2022-07-29T07:59:24;11.93;;;3.50;;
66619;SDS011;53484;51.356;6.732;2022-07-29T08:01:50;10.57;;;3.53;;
66619;SDS011;53484;51.356;6.732;2022-07-29T08:04:18;8.50;;;3.45;;
66619;SDS011;53484;51.356;6.732;2022-07-29T08:06:44;12.13;;;3.70;;
66619;SDS011;53484;51.356;6.732;2022-07-29T08:09:10;9.95;;;3.67;;
66619;SDS011;53484;51.356;6.732;2022-07-29T08:11:36;13.97;;;3.73;;
66619;SDS011;53484;51.356;6.732;2022-07-29T08:14:03;8.65;;;3.22;;
66619;SDS011;53484;51.356;6.732;2022-07-29T08:16:29;9.68;;;3.10;;
66619;SDS011;53484;51.356;6.732;2022-07-29T08:18:55;8.90;;;3.55;;
66619;SDS011;53484;51.356;6.732;2022-07-29T08:21:23;10.55;;;3.78;;
66619;SDS011;53484;51.356;6.732;2022-07-29T08:23:50;10.33;;;3.90;;
66619;SDS011;53484;51.356;6.732;2022-07-29T08:26:18;8.27;;;3.42;;
66619;SDS011;53484;51.356;6.732;2022-07-29T08:28:45;10.13;;;3.60;;
66619;SDS011;53484;51.356;6.732;2022-07-29T08:31:14;13.05;;;3.35;;
66619;SDS011;53484;51.356;6.732;2022-07-29T08:33:41;10.32;;;3.25;;
66619;SDS011;53484;51.356;6.732;2022-07-29T08:36:07;11.57;;;3.80;;
66619;SDS011;53484;51.356;6.732;2022-07-29T08:38:35;7.15;;;3.15;;
66619;SDS011;53484;51.356;6.732;2022-07-29T08:41:01;9.75;;;3.53;;
66619;SDS011;53484;51.356;6.732;2022-07-29T08:43:27;8.43;;;3.72;;
66619;SDS011;53484;51.356;6.732;2022-07-29T08:45:54;11.95;;;3.70;;
66619;SDS011;53484;51.356;6.732;2022-07-29T08:48:21;9.27;;;3.17;;
66619;SDS011;53484;51.356;6.732;2022-07-29T08:50:48;8.35;;;3.65;;
66619;SDS011;53484;51.356;6.732;2022-07-29T08:53:15;8.57;;;3.22;;
66619;SDS011;53484;51.356;6.732;2022-07-29T08:55:43;10.65;;;3.33;;
66619;SDS011;53484;51.356;6.732;2022-07-29T08:58:10;12.52;;;3.63;;
66619;SDS011;53484;51.356;6.732;2022-07-29T09:00:38;8.27;;;3.97;;
66619;SDS011;53484;51.356;6.732;2022-07-29T09:03:06;9.05;;;3.67;;
66619;SDS011;53484;51.356;6.732;2022-07-29T09:05:34;7.35;;;3.65;;
66619;SDS011;53484;51.356;6.732;2022-07-29T09:08:00;10.40;;;3.30;;
66619;SDS011;53484;51.356;6.732;2022-07-29T09:10:27;9.60;;;4.05;;
66619;SDS011;53484;51.356;6.732;2022-07-29T09:12:55;8.50;;;3.37;;
66619;SDS011;53484;51.356;6.732;2022-07-29T09:15:21;13.13;;;4.78;;
66619;SDS011;53484;51.356;6.732;2022-07-29T09:17:48;10.20;;;4.10;;
66619;SDS011;53484;51.356;6.732;2022-07-29T09:20:16;13.43;;;3.70;;
66619;SDS011;53484;51.356;6.732;2022-07-29T09:22:43;8.23;;;3.85;;
66619;SDS011;53484;51.356;6.732;2022-07-29T09:25:12;8.60;;;3.90;;
66619;SDS011;53484;51.356;6.732;2022-07-29T09:27:38;10.35;;;3.65;;
66619;SDS011;53484;51.356;6.732;2022-07-29T09:30:08;12.18;;;4.60;;
66619;SDS011;53484;51.356;6.732;2022-07-29T09:35:18;10.20;;;3.80;;
66619;SDS011;53484;51.356;6.732;2022-07-29T09:37:45;12.17;;;3.90;;
66619;SDS011;53484;51.356;6.732;2022-07-29T09:40:12;11.65;;;4.18;;
66619;SDS011;53484;51.356;6.732;2022-07-29T09:42:38;10.88;;;4.15;;
66619;SDS011;53484;51.356;6.732;2022-07-29T09:45:05;10.32;;;3.90;;
66619;SDS011;53484;51.356;6.732;2022-07-29T09:47:43;10.20;;;4.65;;
66619;SDS011;53484;51.356;6.732;2022-07-29T09:50:11;12.87;;;3.80;;
66619;SDS011;53484;51.356;6.732;2022-07-29T09:52:45;10.55;;;3.97;;
66619;SDS011;53484;51.356;6.732;2022-07-29T09:55:12;12.18;;;4.05;;
66619;SDS011;53484;51.356;6.732;2022-07-29T09:57:39;9.38;;;4.10;;
66619;SDS011;53484;51.356;6.732;2022-07-29T10:00:07;16.83;;;4.50;;
66619;SDS011;53484;51.356;6.732;2022-07-29T10:02:34;10.50;;;4.00;;
66619;SDS011;53484;51.356;6.732;2022-07-29T10:05:04;11.38;;;4.18;;
66619;SDS011;53484;51.356;6.732;2022-07-29T10:07:42;9.73;;;4.10;;
66619;SDS011;53484;51.356;6.732;2022-07-29T10:10:09;9.23;;;4.53;;
66619;SDS011;53484;51.356;6.732;2022-07-29T10:12:37;14.23;;;4.85;;
66619;SDS011;53484;51.356;6.732;2022-07-29T10:15:14;43.23;;;4.60;;
66619;SDS011;53484;51.356;6.732;2022-07-29T10:17:41;16.58;;;4.85;;
66619;SDS011;53484;51.356;6.732;2022-07-29T10:20:09;11.52;;;4.32;;
66619;SDS011;53484;51.356;6.732;2022-07-29T10:22:36;11.63;;;5.00;;
66619;SDS011;53484;51.356;6.732;2022-07-29T10:25:02;11.00;;;4.57;;
66619;SDS011;53484;51.356;6.732;2022-07-29T10:27:29;10.60;;;4.97;;
66619;SDS011;53484;51.356;6.732;2022-07-29T10:29:55;12.40;;;4.55;;
66619;SDS011;53484;51.356;6.732;2022-07-29T10:32:25;12.88;;;4.07;;
66619;SDS011;53484;51.356;6.732;2022-07-29T10:34:59;13.85;;;4.15;;
66619;SDS011;53484;51.356;6.732;2022-07-29T10:37:30;9.52;;;4.10;;
66619;SDS011;53484;51.356;6.732;2022-07-29T10:40:00;11.57;;;3.87;;
66619;SDS011;53484;51.356;6.732;2022-07-29T10:42:49;12.10;;;3.67;;
66619;SDS011;53484;51.356;6.732;2022-07-29T10:45:16;16.20;;;3.90;;
66619;SDS011;53484;51.356;6.732;2022-07-29T10:47:43;12.93;;;3.97;;
66619;SDS011;53484;51.356;6.732;2022-07-29T10:50:10;8.80;;;3.45;;
66619;SDS011;53484;51.356;6.732;2022-07-29T10:52:54;9.00;;;2.70;;
66619;SDS011;53484;51.356;6.732;2022-07-29T10:55:31;7.25;;;3.00;;
66619;SDS011;53484;51.356;6.732;2022-07-29T11:00:42;11.23;;;2.90;;
66619;SDS011;53484;51.356;6.732;2022-07-29T11:03:08;8.60;;;2.90;;
66619;SDS011;53484;51.356;6.732;2022-07-29T11:05:51;8.57;;;2.60;;
66619;SDS011;53484;51.356;6.732;2022-07-29T11:08:23;8.00;;;2.67;;
66619;SDS011;53484;51.356;6.732;2022-07-29T11:10:51;10.68;;;3.05;;
66619;SDS011;53484;51.356;6.732;2022-07-29T11:16:03;7.18;;;2.60;;
66619;SDS011;53484;51.356;6.732;2022-07-29T11:18:30;8.40;;;3.03;;
66619;SDS011;53484;51.356;6.732;2022-07-29T11:20:56;9.07;;;3.15;;
66619;SDS011;53484;51.356;6.732;2022-07-29T11:23:26;11.95;;;2.47;;
66619;SDS011;53484;51.356;6.732;2022-07-29T11:28:38;9.52;;;2.85;;
66619;SDS011;53484;51.356;6.732;2022-07-29T11:31:05;7.03;;;2.63;;
66619;SDS011;53484;51.356;6.732;2022-07-29T11:33:33;11.60;;;3.28;;
66619;SDS011;53484;51.356;6.732;2022-07-29T11:36:10;11.48;;;3.72;;
66619;SDS011;53484;51.356;6.732;2022-07-29T11:38:38;9.55;;;3.80;;
66619;SDS011;53484;51.356;6.732;2022-07-29T11:41:22;15.52;;;4.88;;
66619;SDS011;53484;51.356;6.732;2022-07-29T11:43:49;23.20;;;3.90;;
66619;SDS011;53484;51.356;6.732;2022-07-29T11:46:17;13.30;;;4.28;;
66619;SDS011;53484;51.356;6.732;2022-07-29T11:48:44;13.38;;;4.80;;
66619;SDS011;53484;51.356;6.732;2022-07-29T11:51:10;14.90;;;5.15;;
66619;SDS011;53484;51.356;6.732;2022-07-29T11:53:38;10.38;;;3.90;;
66619;SDS011;53484;51.356;6.732;2022-07-29T11:56:06;9.97;;;3.23;;
66619;SDS011;53484;51.356;6.732;2022-07-29T11:58:33;12.10;;;3.30;;
66619;SDS011;53484;51.356;6.732;2022-07-29T12:01:00;11.63;;;4.72;;
66619;SDS011;53484;51.356;6.732;2022-07-29T12:03:27;12.13;;;3.13;;
66619;SDS011;53484;51.356;6.732;2022-07-29T12:05:54;7.28;;;2.90;;
66619;SDS011;53484;51.356;6.732;2022-07-29T12:08:21;8.53;;;2.87;;
66619;SDS011;53484;51.356;6.732;2022-07-29T12:10:49;9.88;;;3.35;;
66619;SDS011;53484;51.356;6.732;2022-07-29T12:13:16;9.85;;;3.08;;
66619;SDS011;53484;51.356;6.732;2022-07-29T12:15:51;8.77;;;3.17;;
66619;SDS011;53484;51.356;6.732;2022-07-29T12:18:17;9.88;;;3.40;;
66619;SDS011;53484;51.356;6.732;2022-07-29T12:20:45;13.30;;;5.27;;
66619;SDS011;53484;51.356;6.732;2022-07-29T12:23:11;12.93;;;4.45;;
66619;SDS011;53484;51.356;6.732;2022-07-29T12:25:39;12.77;;;4.95;;
66619;SDS011;53484;51.356;6.732;2022-07-29T12:28:07;12.13;;;4.00;;
66619;SDS011;53484;51.356;6.732;2022-07-29T12:30:35;11.27;;;3.83;;
66619;SDS011;53484;51.356;6.732;2022-07-29T12:33:09;18.57;;;4.00;;
66619;SDS011;53484;51.356;6.732;2022-07-29T12:35:36;11.18;;;3.80;;
66619;SDS011;53484;51.356;6.732;2022-07-29T12:38:02;9.80;;;3.83;;
66619;SDS011;53484;51.356;6.732;2022-07-29T12:40:28;9.40;;;3.70;;
66619;SDS011;53484;51.356;6.732;2022-07-29T12:43:09;8.25;;;3.15;;
66619;SDS011;53484;51.356;6.732;2022-07-29T12:45:36;7.37;;;2.60;;
66619;SDS011;53484;51.356;6.732;2022-07-29T12:48:02;7.30;;;2.70;;
66619;SDS011;53484;51.356;6.732;2022-07-29T12:50:29;14.68;;;3.20;;
66619;SDS011;53484;51.356;6.732;2022-07-29T12:53:07;15.30;;;4.32;;
66619;SDS011;53484;51.356;6.732;2022-07-29T12:55:43;11.10;;;3.78;;
66619;SDS011;53484;51.356;6.732;2022-07-29T12:58:24;12.93;;;4.00;;
66619;SDS011;53484;51.356;6.732;2022-07-29T13:00:57;8.55;;;2.80;;
66619;SDS011;53484;51.356;6.732;2022-07-29T13:03:24;12.68;;;3.22;;
66619;SDS011;53484;51.356;6.732;2022-07-29T13:05:50;11.80;;;3.58;;
66619;SDS011;53484;51.356;6.732;2022-07-29T13:08:18;10.90;;;3.35;;
66619;SDS011;53484;51.356;6.732;2022-07-29T13:10:45;7.87;;;2.93;;
66619;SDS011;53484;51.356;6.732;2022-07-29T13:13:12;9.98;;;3.15;;
66619;SDS011;53484;51.356;6.732;2022-07-29T13:15:40;5.93;;;2.67;;
66619;SDS011;53484;51.356;6.732;2022-07-29T13:20:48;7.85;;;2.50;;
66619;SDS011;53484;51.356;6.732;2022-07-29T13:23:15;11.03;;;3.40;;
66619;SDS011;53484;51.356;6.732;2022-07-29T13:25:41;9.45;;;3.15;;
66619;SDS011;53484;51.356;6.732;2022-07-29T13:28:07;11.15;;;3.30;;
66619;SDS011;53484;51.356;6.732;2022-07-29T13:30:33;7.50;;;2.88;;
66619;SDS011;53484;51.356;6.732;2022-07-29T13:33:01;7.78;;;2.80;;
66619;SDS011;53484;51.356;6.732;2022-07-29T13:35:27;8.30;;;2.80;;
66619;SDS011;53484;51.356;6.732;2022-07-29T13:37:54;10.45;;;2.70;;
66619;SDS011;53484;51.356;6.732;2022-07-29T13:40:21;10.07;;;2.67;;
66619;SDS011;53484;51.356;6.732;2022-07-29T13:42:47;13.05;;;2.92;;
66619;SDS011;53484;51.356;6.732;2022-07-29T13:45:13;7.40;;;2.42;;
66619;SDS011;53484;51.356;6.732;2022-07-29T13:47:40;8.37;;;2.40;;
66619;SDS011;53484;51.356;6.732;2022-07-29T13:50:08;9.02;;;2.97;;
66619;SDS011;53484;51.356;6.732;2022-07-29T13:52:35;10.93;;;3.90;;
66619;SDS011;53484;51.356;6.732;2022-07-29T13:55:02;7.50;;;2.58;;
66619;SDS011;53484;51.356;6.732;2022-07-29T13:57:29;9.52;;;3.13;;
66619;SDS011;53484;51.356;6.732;2022-07-29T13:59:55;8.30;;;2.90;;
66619;SDS011;53484;51.356;6.732;2022-07-29T14:02:22;7.38;;;2.47;;
66619;SDS011;53484;51.356;6.732;2022-07-29T14:04:48;8.23;;;2.75;;
66619;SDS011;53484;51.356;6.732;2022-07-29T14:07:15;12.82;;;3.10;;
66619;SDS011;53484;51.356;6.732;2022-07-29T14:09:42;11.02;;;3.28;;
66619;SDS011;53484;51.356;6.732;2022-07-29T14:12:08;7.43;;;2.73;;
66619;SDS011;53484;51.356;6.732;2022-07-29T14:14:35;5.85;;;2.38;;
66619;SDS011;53484;51.356;6.732;2022-07-29T14:17:01;8.15;;;2.42;;
66619;SDS011;53484;51.356;6.732;2022-07-29T14:19:28;9.63;;;2.90;;
66619;SDS011;53484;51.356;6.732;2022-07-29T14:21:54;9.48;;;2.67;;
66619;SDS011;53484;51.356;6.732;2022-07-29T14:24:21;7.10;;;2.40;;
66619;SDS011;53484;51.356;6.732;2022-07-29T14:26:48;7.63;;;2.30;;
66619;SDS011;53484;51.356;6.732;2022-07-29T14:29:14;8.18;;;2.55;;
66619;SDS011;53484;51.356;6.732;2022-07-29T14:31:41;6.95;;;2.50;;
66619;SDS011;53484;51.356;6.732;2022-07-29T14:34:07;9.15;;;2.88;;
66619;SDS011;53484;51.356;6.732;2022-07-29T14:36:34;9.90;;;2.80;;
66619;SDS011;53484;51.356;6.732;2022-07-29T14:39:00;11.30;;;2.90;;
66619;SDS011;53484;51.356;6.732;2022-07-29T14:41:28;8.82;;;3.00;;
66619;SDS011;53484;51.356;6.732;2022-07-29T14:43:54;8.75;;;2.92;;
66619;SDS011;53484;51.356;6.732;2022-07-29T14:46:21;8.18;;;3.03;;
66619;SDS011;53484;51.356;6.732;2022-07-29T14:48:47;9.67;;;2.70;;
66619;SDS011;53484;51.356;6.732;2022-07-29T14:51:13;6.65;;;2.60;;
66619;SDS011;53484;51.356;6.732;2022-07-29T14:53:39;11.15;;;2.97;;
66619;SDS011;53484;51.356;6.732;2022-07-29T14:56:06;7.18;;;3.05;;
66619;SDS011;53484;51.356;6.732;2022-07-29T14:58:33;11.55;;;2.80;;
66619;SDS011;53484;51.356;6.732;2022-07-29T15:01:00;9.50;;;2.60;;
66619;SDS011;53484;51.356;6.732;2022-07-29T15:03:26;7.57;;;2.65;;
66619;SDS011;53484;51.356;6.732;2022-07-29T15:05:53;8.35;;;2.60;;